createdAt,value
2023-02-25T00:02:27.707Z,28.20
2023-02-25T00:04:56.239Z,28.58
2023-02-25T00:07:44.421Z,27.50
2023-02-25T00:10:13.181Z,28.30
2023-02-25T00:12:43.091Z,32.90
2023-02-25T00:15:11.713Z,29.80
2023-02-25T00:17:42.853Z,29.70
2023-02-25T00:20:13.739Z,31.52
2023-02-25T00:22:48.654Z,30.38
2023-02-25T00:25:18.363Z,28.65
2023-02-25T00:27:49.118Z,28.55
2023-02-25T00:30:18.037Z,29.15
2023-02-25T00:32:48.106Z,27.50
2023-02-25T00:35:17.987Z,30.77
2023-02-25T00:37:46.819Z,32.78
2023-02-25T00:40:15.228Z,30.00
2023-02-25T00:42:45.129Z,25.13
2023-02-25T00:45:14.092Z,28.92
2023-02-25T00:47:43.694Z,25.98
2023-02-25T00:50:14.434Z,33.17
2023-02-25T00:52:47.324Z,29.00
2023-02-25T00:55:19.206Z,32.17
2023-02-25T00:57:51.788Z,32.00
2023-02-25T01:00:21.007Z,33.28
2023-02-25T01:02:52.227Z,33.85
2023-02-25T01:05:20.690Z,33.65
2023-02-25T01:07:50.151Z,30.38
2023-02-25T01:10:25.006Z,33.03
2023-02-25T01:12:57.616Z,36.28
2023-02-25T01:15:25.577Z,31.98
2023-02-25T01:17:56.836Z,34.70
2023-02-25T01:20:30.278Z,33.60
2023-02-25T01:22:58.979Z,32.38
2023-02-25T01:25:32.077Z,31.50
2023-02-25T01:28:03.752Z,37.08
2023-02-25T01:30:37.969Z,32.70
2023-02-25T01:33:06.125Z,31.45
2023-02-25T01:35:36.320Z,36.70
2023-02-25T01:38:04.592Z,33.05
2023-02-25T01:40:33.661Z,33.25
2023-02-25T01:43:02.626Z,36.92
2023-02-25T01:45:33.950Z,32.35
2023-02-25T01:48:19.829Z,33.75
2023-02-25T01:51:16.646Z,28.90
2023-02-25T01:56:17.030Z,32.70
2023-02-25T01:58:46.001Z,33.88
2023-02-25T02:01:16.382Z,36.60
2023-02-25T02:03:48.629Z,32.63
2023-02-25T02:06:19.801Z,23.42
2023-02-25T02:08:49.124Z,27.33
2023-02-25T02:11:18.985Z,26.58
2023-02-25T02:13:52.190Z,21.42
2023-02-25T02:16:35.171Z,28.77
2023-02-25T02:19:32.933Z,22.80
2023-02-25T02:22:13.083Z,30.85
2023-02-25T02:25:09.417Z,29.52
2023-02-25T02:27:57.268Z,30.98
2023-02-25T02:30:47.920Z,30.65
2023-02-25T02:33:27.869Z,34.38
2023-02-25T02:36:16.268Z,36.03
2023-02-25T02:38:54.797Z,30.73
2023-02-25T02:41:34.672Z,22.27
2023-02-25T02:44:14.562Z,24.48
2023-02-25T02:46:51.767Z,28.95
2023-02-25T02:49:29.584Z,26.75
2023-02-25T02:52:09.599Z,24.13
2023-02-25T02:54:38.420Z,22.05
2023-02-25T02:57:09.304Z,26.20
2023-02-25T02:59:43.220Z,23.13
2023-02-25T03:02:19.503Z,26.00
2023-02-25T03:07:18.130Z,28.25
2023-02-25T03:09:51.001Z,24.13
2023-02-25T03:12:23.908Z,22.48
2023-02-25T03:14:51.963Z,22.55
2023-02-25T03:17:27.428Z,22.75
2023-02-25T03:20:14.390Z,22.38
2023-02-25T03:22:46.931Z,21.67
2023-02-25T03:25:22.486Z,22.55
2023-02-25T03:27:53.819Z,22.20
2023-02-25T03:30:45.250Z,23.98
2023-02-25T03:33:25.904Z,18.83
2023-02-25T03:35:56.081Z,20.70
2023-02-25T03:38:26.993Z,20.88
2023-02-25T03:40:57.383Z,26.90
2023-02-25T03:43:31.067Z,21.98
2023-02-25T03:46:01.601Z,26.40
2023-02-25T03:48:30.479Z,25.52
2023-02-25T03:51:05.241Z,23.95
2023-02-25T03:53:50.756Z,22.88
2023-02-25T03:56:24.443Z,23.60
2023-02-25T03:58:53.081Z,26.20
2023-02-25T04:01:30.580Z,24.23
2023-02-25T04:03:59.381Z,24.98
2023-02-25T04:06:29.529Z,26.50
2023-02-25T04:08:59.030Z,31.20
2023-02-25T04:11:27.552Z,23.23
2023-02-25T04:13:55.638Z,24.92
2023-02-25T04:16:25.389Z,33.83
2023-02-25T04:18:56.069Z,28.58
2023-02-25T04:21:43.077Z,27.40
2023-02-25T04:24:13.197Z,32.30
2023-02-25T04:26:41.361Z,23.70
2023-02-25T04:29:16.345Z,29.85
2023-02-25T04:31:44.594Z,22.95
2023-02-25T04:34:12.592Z,22.38
2023-02-25T04:36:44.498Z,24.60
2023-02-25T04:39:12.898Z,28.95
2023-02-25T04:41:41.106Z,24.30
2023-02-25T04:44:11.997Z,22.60
2023-02-25T04:46:42.854Z,27.15
2023-02-25T04:49:11.274Z,23.27
2023-02-25T04:51:40.601Z,22.88
2023-02-25T04:54:08.959Z,23.13
2023-02-25T04:56:37.466Z,25.70
2023-02-25T04:59:06.012Z,24.08
2023-02-25T05:01:34.235Z,23.50
2023-02-25T05:04:04.462Z,24.30
2023-02-25T05:06:32.764Z,26.02
2023-02-25T05:09:08.758Z,23.48
2023-02-25T05:11:42.228Z,29.83
2023-02-25T05:14:12.635Z,27.52
2023-02-25T05:16:42.428Z,25.73
2023-02-25T05:19:22.691Z,22.73
2023-02-25T05:21:53.242Z,29.10
2023-02-25T05:24:23.983Z,29.65
2023-02-25T05:26:52.075Z,25.08
2023-02-25T05:29:20.077Z,26.40
2023-02-25T05:31:49.737Z,27.30
2023-02-25T05:34:18.083Z,27.98
2023-02-25T05:36:47.020Z,29.80
2023-02-25T05:39:15.913Z,24.15
2023-02-25T05:41:43.901Z,24.00
2023-02-25T05:44:12.120Z,26.85
2023-02-25T05:46:41.022Z,25.98
2023-02-25T05:49:09.365Z,34.53
2023-02-25T05:51:40.150Z,27.85
2023-02-25T05:54:08.397Z,28.70
2023-02-25T05:56:37.857Z,26.92
2023-02-25T05:59:05.866Z,25.60
2023-02-25T06:02:17.869Z,28.25
2023-02-25T06:04:56.583Z,24.98
2023-02-25T06:07:34.209Z,25.27
2023-02-25T06:10:03.249Z,25.55
2023-02-25T06:12:32.975Z,22.13
2023-02-25T06:15:01.615Z,25.48
2023-02-25T06:17:31.935Z,23.35
2023-02-25T06:20:01.423Z,25.50
2023-02-25T06:22:31.202Z,22.13
2023-02-25T06:24:59.317Z,21.95
2023-02-25T06:27:31.214Z,24.05
2023-02-25T06:30:02.822Z,26.45
2023-02-25T06:32:32.438Z,27.10
2023-02-25T06:35:00.493Z,21.90
2023-02-25T06:37:28.741Z,26.15
2023-02-25T06:39:56.948Z,25.58
2023-02-25T06:42:25.025Z,34.58
2023-02-25T06:44:53.158Z,33.30
2023-02-25T06:47:24.314Z,34.65
2023-02-25T06:49:53.232Z,32.72
2023-02-25T06:52:21.306Z,33.35
2023-02-25T06:54:51.282Z,30.00
2023-02-25T06:57:19.947Z,29.00
2023-02-25T06:59:48.975Z,23.95
2023-02-25T07:02:17.136Z,24.85
2023-02-25T07:04:47.768Z,31.73
2023-02-25T07:07:16.616Z,27.35
2023-02-25T07:09:47.478Z,24.42
2023-02-25T07:12:20.090Z,24.52
2023-02-25T07:14:49.784Z,27.88
2023-02-25T07:17:17.714Z,28.45
2023-02-25T07:19:45.701Z,23.05
2023-02-25T07:22:16.649Z,21.27
2023-02-25T07:24:45.127Z,18.60
2023-02-25T07:27:13.819Z,20.35
2023-02-25T07:29:42.080Z,22.13
2023-02-25T07:32:10.488Z,20.48
2023-02-25T07:34:39.431Z,19.45
2023-02-25T07:37:07.265Z,23.33
2023-02-25T07:39:35.314Z,20.70
2023-02-25T07:42:03.325Z,18.65
2023-02-25T07:44:31.639Z,25.48
2023-02-25T07:46:59.558Z,22.33
2023-02-25T07:49:32.680Z,23.45
2023-02-25T07:52:00.993Z,19.17
2023-02-25T07:54:29.393Z,18.02
2023-02-25T07:56:57.629Z,15.55
2023-02-25T07:59:25.854Z,21.85
2023-02-25T08:01:55.599Z,17.00
2023-02-25T08:04:24.689Z,16.13
2023-02-25T08:06:52.930Z,15.95
2023-02-25T08:09:20.880Z,16.13
2023-02-25T08:11:50.394Z,21.52
2023-02-25T08:14:18.777Z,22.48
2023-02-25T08:16:46.652Z,16.65
2023-02-25T08:19:15.609Z,17.77
2023-02-25T08:21:44.000Z,16.10
2023-02-25T08:24:13.910Z,18.13
2023-02-25T08:26:42.904Z,17.23
2023-02-25T08:29:11.363Z,16.60
2023-02-25T08:31:40.305Z,18.63
2023-02-25T08:34:09.679Z,17.73
2023-02-25T08:36:40.443Z,14.27
2023-02-25T08:39:11.529Z,15.43
2023-02-25T08:41:40.414Z,15.02
2023-02-25T08:44:09.452Z,13.50
2023-02-25T08:46:38.213Z,18.98
2023-02-25T08:49:09.438Z,18.65
2023-02-25T08:51:38.818Z,15.48
2023-02-25T08:54:10.891Z,16.23
2023-02-25T08:56:44.541Z,20.40
2023-02-25T08:59:15.334Z,18.42
2023-02-25T09:01:46.712Z,21.60
2023-02-25T09:04:18.488Z,16.50
2023-02-25T09:06:47.886Z,18.60
2023-02-25T09:09:19.040Z,14.30
2023-02-25T09:11:51.049Z,18.05
2023-02-25T09:14:21.797Z,28.05
2023-02-25T09:16:50.375Z,21.80
2023-02-25T09:19:18.918Z,17.25
2023-02-25T09:21:50.495Z,17.85
2023-02-25T09:24:19.097Z,12.70
2023-02-25T09:26:47.414Z,16.70
2023-02-25T09:29:15.430Z,19.88
2023-02-25T09:31:43.569Z,21.30
2023-02-25T09:34:15.665Z,17.08
2023-02-25T09:36:46.796Z,16.30
2023-02-25T09:39:14.788Z,16.42
2023-02-25T09:41:55.644Z,16.85
2023-02-25T09:44:28.323Z,20.17
2023-02-25T09:46:57.766Z,24.98
2023-02-25T09:49:37.409Z,22.88
2023-02-25T09:52:12.173Z,18.98
2023-02-25T09:54:47.549Z,18.33
2023-02-25T09:57:19.237Z,21.27
2023-02-25T09:59:48.232Z,19.90
2023-02-25T10:02:28.209Z,25.08
2023-02-25T10:05:18.417Z,20.05
2023-02-25T10:08:22.470Z,24.05
2023-02-25T10:11:01.986Z,22.45
2023-02-25T10:13:54.398Z,25.70
2023-02-25T10:16:33.388Z,26.80
2023-02-25T10:19:28.928Z,19.85
2023-02-25T10:22:17.531Z,20.63
2023-02-25T10:25:12.121Z,20.00
2023-02-25T10:27:51.017Z,20.98
2023-02-25T10:30:23.521Z,11.30
2023-02-25T10:32:55.461Z,20.40
2023-02-25T10:35:29.169Z,19.45
2023-02-25T10:37:57.334Z,21.58
2023-02-25T10:40:31.268Z,19.25
2023-02-25T10:43:02.556Z,14.75
2023-02-25T10:45:40.478Z,20.60
2023-02-25T10:48:14.874Z,17.40
2023-02-25T10:50:46.310Z,23.85
2023-02-25T10:53:17.404Z,15.68
2023-02-25T10:55:54.347Z,19.27
2023-02-25T11:01:24.866Z,19.65
2023-02-25T11:04:01.515Z,22.73
2023-02-25T11:06:33.045Z,26.95
2023-02-25T11:09:06.562Z,21.30
2023-02-25T11:11:39.286Z,15.87
2023-02-25T11:14:14.782Z,23.30
2023-02-25T11:16:44.995Z,19.30
2023-02-25T11:19:22.744Z,24.92
2023-02-25T11:21:50.977Z,16.33
2023-02-25T11:24:28.728Z,22.60
2023-02-25T11:26:57.594Z,18.35
2023-02-25T11:29:36.314Z,26.52
2023-02-25T11:32:10.654Z,20.75
2023-02-25T11:34:56.622Z,22.27
2023-02-25T11:37:43.227Z,22.30
2023-02-25T11:40:44.301Z,23.33
2023-02-25T11:46:28.392Z,26.73
2023-02-25T11:49:13.800Z,24.52
2023-02-25T11:51:52.116Z,26.65
2023-02-25T11:54:53.888Z,25.63
2023-02-25T11:58:00.139Z,28.60
2023-02-25T12:01:24.038Z,24.25
2023-02-25T12:04:07.206Z,24.13
2023-02-25T12:06:45.653Z,20.33
2023-02-25T12:09:31.521Z,18.52
2023-02-25T12:12:24.030Z,17.80
2023-02-25T12:15:11.897Z,22.83
2023-02-25T12:18:01.933Z,22.88
2023-02-25T12:20:42.275Z,25.52
2023-02-25T12:23:30.887Z,24.75
2023-02-25T12:26:09.619Z,27.25
2023-02-25T12:28:51.456Z,22.25
2023-02-25T12:31:44.822Z,21.02
2023-02-25T12:34:22.596Z,24.38
2023-02-25T12:37:15.559Z,21.27
2023-02-25T12:39:46.981Z,28.65
2023-02-25T12:42:33.453Z,30.02
2023-02-25T12:45:22.520Z,20.77
2023-02-25T12:48:44.417Z,21.20
2023-02-25T12:51:21.215Z,20.52
2023-02-25T12:53:49.474Z,25.05
2023-02-25T12:56:44.359Z,29.10
2023-02-25T12:59:42.735Z,29.90
2023-02-25T13:02:17.521Z,27.10
2023-02-25T13:05:26.288Z,24.17
2023-02-25T13:08:27.657Z,25.30
2023-02-25T13:11:22.187Z,27.23
2023-02-25T13:13:54.497Z,24.95
2023-02-25T13:16:34.252Z,28.52
2023-02-25T13:19:14.448Z,19.90
2023-02-25T13:21:54.143Z,24.98
2023-02-25T13:24:31.898Z,24.45
2023-02-25T13:27:27.111Z,21.80
2023-02-25T13:30:06.640Z,19.50
2023-02-25T13:32:35.006Z,23.23
2023-02-25T13:35:40.380Z,27.25
2023-02-25T13:38:14.663Z,22.58
2023-02-25T13:40:48.657Z,20.92
2023-02-25T13:43:38.479Z,22.35
2023-02-25T13:46:12.116Z,26.10
2023-02-25T13:51:30.520Z,21.00
2023-02-25T13:54:21.102Z,27.45
2023-02-25T13:57:01.950Z,22.20
2023-02-25T14:00:09.755Z,26.05
2023-02-25T14:02:51.657Z,27.65
2023-02-25T14:05:25.040Z,26.27
2023-02-25T14:08:05.424Z,28.33
2023-02-25T14:10:54.803Z,21.08
2023-02-25T14:13:56.538Z,32.15
2023-02-25T14:16:46.688Z,21.60
2023-02-25T14:19:45.701Z,20.52
2023-02-25T14:22:22.005Z,23.55
2023-02-25T14:25:20.203Z,25.05
2023-02-25T14:28:13.396Z,21.50
2023-02-25T14:31:07.426Z,28.83
2023-02-25T14:33:56.457Z,25.48
2023-02-25T14:36:44.587Z,28.83
2023-02-25T14:39:16.443Z,31.60
2023-02-25T14:42:13.867Z,32.17
2023-02-25T14:45:12.664Z,26.85
2023-02-25T14:47:42.991Z,29.75
2023-02-25T14:50:31.125Z,31.88
2023-02-25T14:53:25.861Z,32.03
2023-02-25T14:56:20.226Z,32.22
2023-02-25T14:59:04.024Z,37.10
2023-02-25T15:01:59.602Z,37.47
2023-02-25T15:05:05.826Z,36.50
2023-02-25T15:08:02.764Z,39.22
2023-02-25T15:10:44.937Z,32.97
2023-02-25T15:13:43.085Z,32.78
2023-02-25T15:16:30.479Z,32.60
2023-02-25T15:19:17.572Z,35.70
2023-02-25T15:21:49.155Z,34.72
2023-02-25T15:24:37.014Z,33.63
2023-02-25T15:27:33.209Z,39.53
2023-02-25T15:30:02.240Z,29.48
2023-02-25T15:32:50.928Z,36.80
2023-02-25T15:35:28.002Z,35.17
2023-02-25T15:37:56.614Z,36.13
2023-02-25T15:40:34.756Z,30.35
2023-02-25T15:43:11.123Z,37.33
2023-02-25T15:45:41.631Z,35.70
2023-02-25T15:48:11.148Z,36.28
2023-02-25T15:50:42.675Z,37.92
2023-02-25T15:53:26.175Z,31.98
2023-02-25T15:56:16.948Z,38.67
2023-02-25T15:58:59.274Z,36.60
2023-02-25T16:01:42.770Z,34.22
2023-02-25T16:04:43.477Z,30.13
2023-02-25T16:07:14.768Z,38.35
2023-02-25T16:09:48.325Z,42.40
2023-02-25T16:12:16.426Z,32.42
2023-02-25T16:14:45.681Z,37.10
2023-02-25T16:17:29.544Z,35.65
2023-02-25T16:20:12.129Z,44.47
2023-02-25T16:22:40.123Z,36.75
2023-02-25T16:25:13.212Z,31.92
2023-02-25T16:28:01.455Z,30.40
2023-02-25T16:30:37.511Z,34.08
2023-02-25T16:33:39.546Z,42.05
2023-02-25T16:36:35.662Z,33.58
2023-02-25T16:39:16.347Z,37.00
2023-02-25T16:41:44.999Z,42.60
2023-02-25T16:44:30.904Z,36.53
2023-02-25T16:46:58.823Z,35.22
2023-02-25T16:49:43.708Z,36.05
2023-02-25T16:52:18.422Z,40.40
2023-02-25T16:54:49.054Z,36.92
2023-02-25T16:57:21.948Z,35.90
2023-02-25T16:59:51.960Z,39.85
2023-02-25T17:02:23.106Z,37.45
2023-02-25T17:04:55.014Z,46.35
2023-02-25T17:07:28.063Z,36.35
2023-02-25T17:10:02.109Z,40.17
2023-02-25T17:12:44.312Z,38.42
2023-02-25T17:15:17.313Z,45.85
2023-02-25T17:17:45.565Z,42.63
2023-02-25T17:20:19.393Z,38.97
2023-02-25T17:22:47.539Z,47.40
2023-02-25T17:25:31.716Z,36.08
2023-02-25T17:28:01.419Z,39.40
2023-02-25T17:30:41.177Z,43.55
2023-02-25T17:33:29.317Z,44.60
2023-02-25T17:35:59.556Z,48.97
2023-02-25T17:38:29.227Z,44.20
2023-02-25T17:41:03.596Z,49.47
2023-02-25T17:43:38.779Z,44.00
2023-02-25T17:46:42.893Z,44.10
2023-02-25T17:49:32.391Z,46.20
2023-02-25T17:52:04.751Z,52.05
2023-02-25T17:57:21.958Z,49.58
2023-02-25T17:59:56.898Z,49.60
2023-02-25T18:02:35.867Z,53.50
2023-02-25T18:05:14.064Z,59.47
2023-02-25T18:07:43.920Z,59.28
2023-02-25T18:10:27.041Z,63.83
2023-02-25T18:12:55.515Z,58.83
2023-02-25T18:15:27.149Z,59.00
2023-02-25T18:17:56.956Z,65.15
2023-02-25T18:20:31.655Z,65.05
2023-02-25T18:23:23.011Z,57.65
2023-02-25T18:26:12.127Z,67.57
2023-02-25T18:28:40.443Z,67.22
2023-02-25T18:31:09.962Z,67.13
2023-02-25T18:33:38.417Z,65.43
2023-02-25T18:36:16.133Z,61.72
2023-02-25T18:38:46.012Z,66.90
2023-02-25T18:41:16.459Z,63.40
2023-02-25T18:43:46.035Z,68.50
2023-02-25T18:46:14.365Z,69.65
2023-02-25T18:48:42.453Z,70.97
2023-02-25T18:51:14.750Z,73.50
2023-02-25T18:53:43.576Z,68.43
2023-02-25T18:56:16.945Z,74.38
2023-02-25T18:58:45.858Z,71.80
2023-02-25T19:01:24.614Z,68.80
2023-02-25T19:03:54.118Z,68.43
2023-02-25T19:06:24.276Z,74.13
2023-02-25T19:08:54.719Z,72.32
2023-02-25T19:11:29.082Z,71.03
2023-02-25T19:13:57.094Z,77.72
2023-02-25T19:16:25.601Z,80.68
2023-02-25T19:18:55.457Z,67.97
2023-02-25T19:21:28.254Z,73.05
2023-02-25T19:23:56.715Z,74.45
2023-02-25T19:26:26.239Z,71.95
2023-02-25T19:28:55.509Z,71.25
2023-02-25T19:31:23.700Z,76.68
2023-02-25T19:33:51.958Z,74.25
2023-02-25T19:36:20.332Z,77.55
2023-02-25T19:38:49.132Z,78.78
2023-02-25T19:41:17.159Z,79.85
2023-02-25T19:43:45.380Z,69.95
2023-02-25T19:46:19.914Z,77.68
2023-02-25T19:48:48.572Z,77.13
2023-02-25T19:51:16.544Z,75.43
2023-02-25T19:53:46.974Z,85.30
2023-02-25T19:56:15.382Z,69.10
2023-02-25T19:58:43.584Z,82.68
2023-02-25T20:01:11.726Z,69.93
2023-02-25T20:03:40.172Z,75.10
2023-02-25T20:06:11.352Z,74.95
2023-02-25T20:08:44.293Z,84.20
2023-02-25T20:11:12.510Z,76.88
2023-02-25T20:13:41.278Z,83.47
2023-02-25T20:16:09.523Z,82.18
2023-02-25T20:18:38.011Z,77.50
2023-02-25T20:21:06.576Z,78.78
2023-02-25T20:23:38.325Z,79.75
2023-02-25T20:26:10.237Z,80.47
2023-02-25T20:28:39.517Z,72.63
2023-02-25T20:31:14.367Z,82.65
2023-02-25T20:33:43.960Z,74.40
2023-02-25T20:36:19.078Z,76.47
2023-02-25T20:39:07.490Z,87.63
2023-02-25T20:41:36.314Z,89.28
2023-02-25T20:44:04.543Z,92.72
2023-02-25T20:46:34.102Z,87.35
2023-02-25T20:49:04.498Z,92.60
2023-02-25T20:51:34.853Z,91.45
2023-02-25T20:54:09.612Z,96.57
2023-02-25T20:56:40.238Z,113.05
2023-02-25T20:59:08.763Z,112.90
2023-02-25T21:01:40.455Z,107.63
2023-02-25T21:04:09.276Z,111.68
2023-02-25T21:06:42.433Z,107.93
2023-02-25T21:09:16.796Z,111.40
2023-02-25T21:11:45.790Z,102.18
2023-02-25T21:14:14.462Z,92.05
2023-02-25T21:16:43.684Z,95.30
2023-02-25T21:19:13.488Z,102.28
2023-02-25T21:21:42.220Z,88.85
2023-02-25T21:24:15.102Z,89.70
2023-02-25T21:26:43.525Z,88.85
2023-02-25T21:29:13.398Z,99.85
2023-02-25T21:31:44.275Z,94.80
2023-02-25T21:34:16.319Z,96.03
2023-02-25T21:36:46.151Z,102.78
2023-02-25T21:39:14.582Z,88.63
2023-02-25T21:41:44.922Z,98.85
2023-02-25T21:44:13.573Z,102.80
2023-02-25T21:46:42.996Z,89.38
2023-02-25T21:49:12.396Z,100.10
2023-02-25T21:52:00.596Z,94.43
2023-02-25T21:54:28.694Z,91.80
2023-02-25T21:56:56.882Z,101.15
2023-02-25T21:59:26.255Z,90.40
2023-02-25T22:01:55.360Z,100.68
2023-02-25T22:04:23.284Z,97.60
2023-02-25T22:06:53.024Z,84.97
2023-02-25T22:09:21.789Z,98.10
2023-02-25T22:11:51.335Z,85.45
2023-02-25T22:14:26.369Z,96.05
2023-02-25T22:16:55.051Z,95.57
2023-02-25T22:19:24.306Z,92.28
2023-02-25T22:21:52.861Z,99.15
2023-02-25T22:24:21.102Z,98.03
2023-02-25T22:26:52.224Z,101.55
2023-02-25T22:29:20.436Z,88.38
2023-02-25T22:31:49.138Z,92.28
2023-02-25T22:34:17.269Z,90.38
2023-02-25T22:36:48.963Z,93.07
2023-02-25T22:39:18.814Z,90.68
2023-02-25T22:41:46.839Z,81.50
2023-02-25T22:44:18.292Z,93.50
2023-02-25T22:46:50.132Z,86.75
2023-02-25T22:49:18.873Z,83.63
2023-02-25T22:51:48.437Z,89.00
2023-02-25T22:54:18.884Z,89.50
2023-02-25T22:56:47.299Z,92.15
2023-02-25T22:59:17.786Z,85.30
2023-02-25T23:01:45.929Z,86.57
2023-02-25T23:04:26.130Z,82.30
2023-02-25T23:06:55.995Z,82.05
2023-02-25T23:09:24.180Z,73.80
2023-02-25T23:11:58.085Z,81.30
2023-02-25T23:14:36.528Z,76.60
2023-02-25T23:17:04.920Z,77.60
2023-02-25T23:19:33.629Z,80.05
2023-02-25T23:22:03.187Z,73.07
2023-02-25T23:24:31.351Z,78.38
2023-02-25T23:26:59.523Z,75.65
2023-02-25T23:29:27.595Z,75.53
2023-02-25T23:31:56.390Z,74.63
2023-02-25T23:34:24.982Z,64.93
2023-02-25T23:36:55.750Z,74.68
2023-02-25T23:39:24.049Z,71.65
2023-02-25T23:41:51.993Z,66.50
2023-02-25T23:44:19.954Z,57.17
2023-02-25T23:46:48.316Z,70.47
2023-02-25T23:49:16.817Z,62.08
2023-02-25T23:51:45.838Z,57.40
2023-02-25T23:54:15.996Z,57.88
2023-02-25T23:56:45.194Z,71.57
2023-02-25T23:59:13.405Z,67.45
